Time;durP1;ratioP1;P1;durP2;ratioP2;P2;SDS_P1;SDS_P2;PMS_P1;PMS_P2;Temp;Humidity;BMP_temperature;BMP_pressure;BME280_temperature;BME280_humidity;BME280_pressure;Samples;Min_cycle;Max_cycle;Signal;HPM_P1;HPM_P2
2022/09/12 00:00:17;;;;;;;7.73;5.37;;;;;;;12.20;100.00;101473.25;7398839;19;20380;-54
2022/09/12 00:02:46;;;;;;;9.33;6.20;;;;;;;12.30;100.00;101469.41;7394508;19;20431;-51
2022/09/12 00:05:19;;;;;;;10.97;6.17;;;;;;;12.46;100.00;101475.28;7397063;19;20447;-52
2022/09/12 00:07:48;;;;;;;8.90;6.40;;;;;;;12.48;100.00;101478.81;7395000;19;20441;-52
2022/09/12 00:10:18;;;;;;;8.30;5.83;;;;;;;12.40;100.00;101481.06;7399443;19;20417;-59
2022/09/12 00:12:47;;;;;;;8.37;6.37;;;;;;;12.29;100.00;101484.06;7393987;19;20432;-58
2022/09/12 00:15:17;;;;;;;7.67;6.30;;;;;;;12.45;100.00;101484.75;7397432;19;20412;-57
2022/09/12 00:17:46;;;;;;;8.70;6.27;;;;;;;12.29;100.00;101485.75;7397080;19;21003;-54
2022/09/12 00:20:18;;;;;;;10.30;5.83;;;;;;;12.23;100.00;101478.59;7398426;19;20387;-58
2022/09/12 00:22:48;;;;;;;10.90;6.00;;;;;;;12.15;100.00;101485.09;7391918;19;20422;-56
2022/09/12 00:25:18;;;;;;;8.90;6.00;;;;;;;12.06;100.00;101489.84;7396856;19;21075;-55
2022/09/12 00:27:47;;;;;;;10.87;6.57;;;;;;;12.01;100.00;101487.88;7394647;19;20418;-55
2022/09/12 00:30:16;;;;;;;8.63;6.33;;;;;;;12.08;100.00;101483.94;7397997;19;20400;-56
2022/09/12 00:32:46;;;;;;;12.10;5.97;;;;;;;12.27;100.00;101483.06;7393485;19;20441;-52
2022/09/12 00:35:15;;;;;;;6.90;5.70;;;;;;;12.08;100.00;101483.03;7400901;19;20421;-54
2022/09/12 00:37:47;;;;;;;8.37;6.23;;;;;;;11.87;100.00;101487.25;7391569;19;20791;-51
2022/09/12 00:40:17;;;;;;;8.93;5.70;;;;;;;11.79;100.00;101472.16;7398391;19;20912;-57
2022/09/12 00:42:46;;;;;;;8.20;6.50;;;;;;;12.17;100.00;101478.31;7394496;19;20472;-51
2022/09/12 00:45:22;;;;;;;9.60;5.80;;;;;;;12.22;100.00;101476.81;7400631;19;20460;-48
2022/09/12 00:47:52;;;;;;;13.60;6.90;;;;;;;12.08;100.00;101472.69;7393654;19;20962;-54
2022/09/12 00:50:21;;;;;;;10.03;5.77;;;;;;;12.10;100.00;101471.09;7396840;19;20387;-52
2022/09/12 00:52:55;;;;;;;9.50;6.00;;;;;;;12.13;100.00;101473.78;7392828;19;20411;-51
2022/09/12 00:55:27;;;;;;;14.87;6.37;;;;;;;12.19;100.00;101473.22;7396271;19;20413;-51
2022/09/12 00:57:59;;;;;;;9.50;5.83;;;;;;;12.09;100.00;101474.44;7393559;19;20441;-54
2022/09/12 01:00:30;;;;;;;7.30;5.40;;;;;;;12.24;100.00;101459.66;7397470;19;20405;-52
2022/09/12 01:03:02;;;;;;;7.40;5.50;;;;;;;12.05;100.00;101472.56;7392588;19;20443;-48
2022/09/12 01:05:33;;;;;;;8.93;5.97;;;;;;;11.97;100.00;101480.81;7396175;19;20446;-55
2022/09/12 01:08:07;;;;;;;8.23;5.40;;;;;;;11.88;100.00;101480.34;7393432;19;20419;-51
2022/09/12 01:10:37;;;;;;;8.03;5.30;;;;;;;11.67;100.00;101485.38;7398267;19;20425;-56
2022/09/12 01:13:09;;;;;;;7.60;5.80;;;;;;;11.46;100.00;101476.66;7391584;19;20507;-50
2022/09/12 01:15:39;;;;;;;7.67;5.27;;;;;;;11.42;100.00;101477.31;7395870;19;20414;-55
2022/09/12 01:18:16;;;;;;;6.83;5.60;;;;;;;11.60;100.00;101466.97;7389207;19;20444;-54
2022/09/12 01:20:56;;;;;;;11.67;5.90;;;;;;;11.66;100.00;101469.00;7397063;19;20389;-60
2022/09/12 01:23:59;;;;;;;6.90;5.73;;;;;;;11.70;100.00;101468.31;7390689;19;20410;-52
2022/09/12 01:26:48;;;;;;;8.53;6.20;;;;;;;11.78;100.00;101467.81;7392752;19;20406;-61
2022/09/12 01:29:31;;;;;;;8.13;6.20;;;;;;;11.95;100.00;101456.56;7397504;19;20386;-55
2022/09/12 01:32:08;;;;;;;7.97;5.27;;;;;;;11.86;100.00;101461.31;7392229;19;20448;-61
2022/09/12 01:34:41;;;;;;;6.70;5.77;;;;;;;11.69;100.00;101457.91;7395206;19;20443;-53
2022/09/12 01:37:16;;;;;;;6.90;4.80;;;;;;;11.43;100.00;101460.97;7391724;19;20453;-49
2022/09/12 01:39:52;;;;;;;9.80;5.50;;;;;;;11.33;100.00;101458.75;7397116;19;20405;-52
2022/09/12 01:42:25;;;;;;;9.03;5.80;;;;;;;11.24;100.00;101464.38;7391195;19;20433;-49
2022/09/12 01:44:58;;;;;;;9.10;5.67;;;;;;;11.44;100.00;101457.59;7394784;19;20410;-54
2022/09/12 01:47:33;;;;;;;7.90;5.60;;;;;;;11.46;100.00;101452.50;7390270;19;20421;-49
2022/09/12 01:50:05;;;;;;;7.43;5.70;;;;;;;11.45;100.00;101453.31;7396584;19;20407;-54
2022/09/12 01:52:39;;;;;;;9.93;7.10;;;;;;;11.35;100.00;101444.22;7393662;19;20442;-61
2022/09/12 01:55:12;;;;;;;10.47;6.97;;;;;;;11.21;100.00;101444.44;7394709;19;20437;-56
2022/09/12 01:57:46;;;;;;;7.53;5.70;;;;;;;11.23;100.00;101441.91;7391209;19;20519;-54
2022/09/12 02:00:16;;;;;;;7.50;5.60;;;;;;;11.08;100.00;101440.31;7394674;19;20423;-55
2022/09/12 02:02:51;;;;;;;7.93;6.00;;;;;;;11.15;100.00;101438.06;7389556;19;20443;-55
2022/09/12 02:05:27;;;;;;;8.57;6.97;;;;;;;11.25;100.00;101429.06;7394446;19;20404;-57
2022/09/12 02:08:00;;;;;;;8.23;6.00;;;;;;;11.35;100.00;101431.31;7391584;19;20440;-52
2022/09/12 02:10:32;;;;;;;8.20;7.20;;;;;;;11.51;100.00;101424.28;7395882;19;20413;-54
2022/09/12 02:13:05;;;;;;;8.83;7.73;;;;;;;11.42;100.00;101423.03;7390242;19;20469;-57
2022/09/12 02:15:39;;;;;;;11.33;7.40;;;;;;;11.36;100.00;101422.75;7394287;19;20800;-55
2022/09/12 02:18:13;;;;;;;9.80;6.87;;;;;;;11.17;100.00;101419.25;7392389;19;20467;-51
2022/09/12 02:20:45;;;;;;;8.53;5.83;;;;;;;11.13;100.00;101427.63;7395747;19;20409;-50
2022/09/12 02:23:21;;;;;;;9.17;6.80;;;;;;;11.15;100.00;101420.88;7387963;19;20429;-59
2022/09/12 02:25:53;;;;;;;7.73;6.70;;;;;;;11.13;100.00;101419.03;7394311;19;20449;-58
2022/09/12 02:28:26;;;;;;;8.83;7.40;;;;;;;11.15;100.00;101422.56;7390253;19;20441;-52
2022/09/12 02:31:01;;;;;;;11.40;8.00;;;;;;;11.11;100.00;101421.53;7395142;19;20900;-54
2022/09/12 02:33:38;;;;;;;10.30;8.20;;;;;;;11.12;100.00;101419.84;7393572;19;20410;-55
2022/09/12 02:36:13;;;;;;;9.43;7.37;;;;;;;11.17;100.00;101424.41;7390459;19;20395;-56
2022/09/12 02:38:45;;;;;;;12.10;6.90;;;;;;;11.13;100.00;101417.31;7394744;19;20392;-56
2022/09/12 02:41:19;;;;;;;7.83;6.70;;;;;;;10.90;100.00;101417.06;7389769;19;20394;-55
2022/09/12 02:43:49;;;;;;;7.50;6.10;;;;;;;10.77;100.00;101419.81;7394150;19;20414;-52
2022/09/12 02:46:20;;;;;;;8.60;6.20;;;;;;;10.77;100.00;101420.69;7390269;19;20390;-57
2022/09/12 02:48:52;;;;;;;9.33;6.10;;;;;;;10.87;100.00;101416.00;7394570;19;20382;-55
2022/09/12 02:51:22;;;;;;;10.40;8.20;;;;;;;10.92;100.00;101411.97;7390119;19;20376;-51
2022/09/12 02:53:52;;;;;;;8.53;7.10;;;;;;;10.92;100.00;101414.56;7393285;19;20385;-51
2022/09/12 02:56:26;;;;;;;11.50;8.03;;;;;;;10.98;100.00;101409.69;7388870;19;20386;-53
2022/09/12 02:58:57;;;;;;;9.10;7.50;;;;;;;10.99;100.00;101411.47;7394189;19;20419;-50
2022/09/12 03:01:35;;;;;;;9.30;7.80;;;;;;;10.96;100.00;101416.47;7388699;19;20438;-54
2022/09/12 03:04:26;;;;;;;10.93;9.07;;;;;;;10.97;100.00;101413.06;7393227;19;20400;-52
2022/09/12 03:07:03;;;;;;;10.07;7.50;;;;;;;11.03;100.00;101412.50;7389318;19;20436;-48
2022/09/12 03:09:38;;;;;;;10.53;8.20;;;;;;;10.99;100.00;101411.47;7393991;19;20398;-48
2022/09/12 03:12:15;;;;;;;12.73;8.70;;;;;;;10.90;100.00;101409.31;7387917;19;20794;-49
2022/09/12 03:15:00;;;;;;;10.43;8.43;;;;;;;10.85;100.00;101403.03;7392428;19;20412;-51
2022/09/12 03:17:42;;;;;;;10.80;9.07;;;;;;;11.17;100.00;101408.91;7388819;19;20418;-49
2022/09/12 03:20:16;;;;;;;11.77;9.30;;;;;;;11.19;100.00;101409.00;7393553;19;20502;-58
2022/09/12 03:22:53;;;;;;;11.33;9.10;;;;;;;11.06;100.00;101412.66;7386395;19;20413;-53
2022/09/12 03:25:25;;;;;;;11.27;9.23;;;;;;;11.18;100.00;101412.41;7391831;19;20409;-56
2022/09/12 03:27:58;;;;;;;13.90;9.30;;;;;;;11.17;100.00;101411.50;7390052;19;20449;-58
2022/09/12 03:30:27;;;;;;;12.60;9.50;;;;;;;11.01;100.00;101415.00;7393390;19;20751;-57
2022/09/12 03:32:57;;;;;;;13.20;8.70;;;;;;;11.05;100.00;101413.47;7384283;19;20417;-56
2022/09/12 03:35:29;;;;;;;17.93;11.50;;;;;;;11.19;100.00;101419.34;7391542;19;20452;-53
2022/09/12 03:37:58;;;;;;;17.53;12.70;;;;;;;11.19;100.00;101430.53;7387854;19;20417;-52
2022/09/12 03:40:28;;;;;;;15.47;11.53;;;;;;;11.15;100.00;101428.63;7392991;19;20401;-52
2022/09/12 03:42:57;;;;;;;18.00;11.40;;;;;;;11.24;100.00;101432.47;7386832;19;20460;-56
2022/09/12 03:45:29;;;;;;;17.73;11.23;;;;;;;11.20;100.00;101437.50;7391060;19;20487;-57
2022/09/12 03:47:59;;;;;;;12.10;9.67;;;;;;;11.11;100.00;101430.94;7389422;19;20803;-54
2022/09/12 03:50:32;;;;;;;12.50;10.40;;;;;;;11.12;100.00;101428.47;7393180;19;20381;-57
2022/09/12 03:53:02;;;;;;;12.47;10.03;;;;;;;11.14;100.00;101432.03;7387089;19;20420;-53
2022/09/12 03:55:31;;;;;;;15.10;9.97;;;;;;;11.13;100.00;101431.94;7391058;19;20406;-54
2022/09/12 03:58:01;;;;;;;13.10;9.53;;;;;;;11.23;100.00;101431.56;7387447;19;20938;-53
2022/09/12 04:00:30;;;;;;;13.33;9.70;;;;;;;11.25;100.00;101435.13;7392509;19;20419;-58
2022/09/12 04:03:00;;;;;;;13.67;9.90;;;;;;;11.23;100.00;101430.69;7386030;19;20434;-52
2022/09/12 04:05:32;;;;;;;12.30;10.57;;;;;;;11.22;100.00;101429.81;7390766;19;20416;-57
2022/09/12 04:08:01;;;;;;;13.07;10.07;;;;;;;11.15;100.00;101428.63;7387391;19;20411;-53
2022/09/12 04:10:30;;;;;;;14.27;10.03;;;;;;;11.00;100.00;101427.84;7392305;19;20415;-57
2022/09/12 04:13:00;;;;;;;13.27;10.70;;;;;;;10.86;100.00;101425.44;7386477;19;20425;-54
2022/09/12 04:15:29;;;;;;;11.77;9.40;;;;;;;10.94;100.00;101429.28;7390488;19;20410;-57
2022/09/12 04:17:59;;;;;;;14.33;10.50;;;;;;;11.05;100.00;101431.53;7387355;19;20449;-52
2022/09/12 04:20:37;;;;;;;11.80;9.73;;;;;;;11.02;100.00;101427.09;7392123;19;20390;-52
2022/09/12 04:23:07;;;;;;;11.57;10.37;;;;;;;11.06;100.00;101422.97;7384431;19;20983;-54
2022/09/12 04:25:36;;;;;;;16.13;10.43;;;;;;;11.15;100.00;101425.13;7399005;19;20422;-53
2022/09/12 04:28:06;;;;;;;14.53;10.80;;;;;;;11.15;100.00;101423.47;7393737;19;20433;-54
2022/09/12 04:30:35;;;;;;;16.60;10.97;;;;;;;11.12;100.00;101423.28;7399188;19;20409;-52
2022/09/12 04:33:05;;;;;;;15.27;11.67;;;;;;;11.14;100.00;101421.69;7393182;19;20427;-57
2022/09/12 04:35:40;;;;;;;16.57;10.57;;;;;;;10.97;100.00;101419.94;7396494;19;20964;-55
2022/09/12 04:38:10;;;;;;;12.40;10.23;;;;;;;10.83;100.00;101425.28;7393913;19;20493;-56
2022/09/12 04:40:39;;;;;;;11.40;9.30;;;;;;;10.73;100.00;101423.03;7399005;19;20414;-54
2022/09/12 04:43:09;;;;;;;12.63;9.87;;;;;;;10.67;100.00;101419.31;7391356;19;20432;-54
2022/09/12 04:45:42;;;;;;;12.23;9.33;;;;;;;10.64;100.00;101419.19;7396511;19;20440;-56
2022/09/12 04:48:12;;;;;;;10.10;8.20;;;;;;;10.58;100.00;101424.03;7391748;19;20780;-55
2022/09/12 04:50:44;;;;;;;13.70;10.00;;;;;;;10.49;100.00;101426.09;7398734;19;20385;-51
2022/09/12 04:53:13;;;;;;;14.33;9.00;;;;;;;10.42;100.00;101434.28;7392571;19;20423;-56
2022/09/12 04:55:43;;;;;;;11.90;9.10;;;;;;;10.39;100.00;101435.03;7395952;19;20413;-56
2022/09/12 04:58:12;;;;;;;14.47;8.60;;;;;;;10.37;100.00;101434.06;7392848;19;20943;-48
2022/09/12 05:00:42;;;;;;;12.90;8.30;;;;;;;10.37;100.00;101439.22;7398381;19;20930;-60
2022/09/12 05:03:11;;;;;;;9.97;8.00;;;;;;;10.34;100.00;101433.88;7390987;19;20429;-54
2022/09/12 05:05:43;;;;;;;14.07;8.93;;;;;;;10.33;100.00;101437.28;7395974;19;20767;-52
2022/09/12 05:08:13;;;;;;;11.43;8.23;;;;;;;10.35;100.00;101435.66;7392882;19;20438;-52
2022/09/12 05:10:42;;;;;;;12.67;8.13;;;;;;;10.34;100.00;101434.78;7398023;19;20725;-52
2022/09/12 05:13:12;;;;;;;10.97;8.77;;;;;;;10.32;100.00;101432.91;7391802;19;20418;-54
2022/09/12 05:15:41;;;;;;;13.57;8.90;;;;;;;10.28;100.00;101439.59;7395850;19;20440;-53
2022/09/12 05:18:10;;;;;;;13.33;8.70;;;;;;;10.19;100.00;101439.09;7392197;19;20938;-57
2022/09/12 05:20:40;;;;;;;11.20;8.20;;;;;;;10.18;100.00;101437.31;7397408;19;20388;-54
2022/09/12 05:23:12;;;;;;;14.30;9.63;;;;;;;10.18;100.00;101429.59;7390846;19;20477;-58
2022/09/12 05:25:41;;;;;;;15.27;10.10;;;;;;;10.16;100.00;101426.94;7395457;19;20428;-56
2022/09/12 05:28:10;;;;;;;15.30;9.63;;;;;;;10.12;100.00;101418.13;7392105;19;20411;-54
2022/09/12 05:30:40;;;;;;;16.97;10.10;;;;;;;10.10;100.00;101418.88;7397373;19;20718;-49
2022/09/12 05:33:09;;;;;;;13.83;10.00;;;;;;;10.16;100.00;101418.31;7391014;19;20419;-53
2022/09/12 05:35:39;;;;;;;15.97;10.57;;;;;;;10.23;100.00;101415.25;7394476;19;20938;-58
2022/09/12 05:38:11;;;;;;;15.30;11.30;;;;;;;10.23;100.00;101410.09;7391567;19;20419;-57
2022/09/12 05:40:40;;;;;;;15.70;11.13;;;;;;;10.25;100.00;101411.06;7397145;19;20911;-52
2022/09/12 05:43:11;;;;;;;15.93;12.03;;;;;;;10.27;100.00;101406.88;7390635;19;20432;-51
2022/09/12 05:45:40;;;;;;;15.27;11.13;;;;;;;10.31;100.00;101413.97;7394885;19;20416;-55
2022/09/12 05:48:10;;;;;;;18.43;11.57;;;;;;;10.30;100.00;101407.03;7391555;19;20442;-53
2022/09/12 05:50:41;;;;;;;15.97;10.60;;;;;;;10.33;100.00;101401.16;7396835;19;20420;-57
2022/09/12 05:53:13;;;;;;;16.80;12.30;;;;;;;10.34;100.00;101415.81;7390221;19;20768;-57
2022/09/12 05:55:42;;;;;;;17.60;12.60;;;;;;;10.39;100.00;101412.69;7398565;19;20802;-53
2022/09/12 05:58:12;;;;;;;19.17;13.50;;;;;;;10.49;100.00;101413.19;7391294;19;20458;-57
2022/09/12 06:00:41;;;;;;;19.17;13.03;;;;;;;10.50;100.00;101425.28;7396194;19;20380;-51
2022/09/12 06:03:11;;;;;;;19.00;13.30;;;;;;;10.63;100.00;101420.00;7389684;19;20492;-56
2022/09/12 06:05:40;;;;;;;21.50;13.90;;;;;;;10.78;100.00;101421.59;7394279;19;20413;-57
2022/09/12 06:08:12;;;;;;;22.30;14.33;;;;;;;10.86;100.00;101425.44;7390958;19;20411;-49
2022/09/12 06:10:42;;;;;;;26.17;17.70;;;;;;;10.91;100.00;101416.25;7395889;19;20409;-54
2022/09/12 06:13:12;;;;;;;21.57;14.63;;;;;;;10.98;100.00;101419.13;7389829;19;20411;-51
2022/09/12 06:15:42;;;;;;;21.53;15.67;;;;;;;11.05;100.00;101431.53;7394218;19;20788;-52
2022/09/12 06:18:12;;;;;;;24.00;14.90;;;;;;;11.15;100.00;101423.47;7390532;19;20421;-55
2022/09/12 06:20:41;;;;;;;23.40;16.00;;;;;;;11.21;100.00;101431.50;7399280;19;20399;-56
2022/09/12 06:23:13;;;;;;;22.53;14.37;;;;;;;11.25;100.00;101434.25;7387601;19;20422;-52
2022/09/12 06:25:48;;;;;;;20.20;14.70;;;;;;;11.37;100.00;101440.00;7393824;19;20437;-56
2022/09/12 06:28:18;;;;;;;23.57;14.83;;;;;;;11.47;100.00;101441.34;7392491;19;20451;-54
2022/09/12 06:30:48;;;;;;;21.67;15.03;;;;;;;11.52;100.00;101441.56;7395425;19;20384;-56
2022/09/12 06:33:17;;;;;;;23.70;15.00;;;;;;;11.52;100.00;101441.56;7389339;19;20437;-52
2022/09/12 06:35:47;;;;;;;18.30;12.60;;;;;;;11.64;100.00;101449.03;7393013;19;20441;-46
2022/09/12 06:38:19;;;;;;;20.80;14.30;;;;;;;11.72;100.00;101443.44;7390148;19;20415;-56
2022/09/12 06:40:48;;;;;;;21.80;14.60;;;;;;;11.82;100.00;101441.28;7395125;19;20481;-56
2022/09/12 06:43:17;;;;;;;23.37;16.47;;;;;;;11.91;100.00;101446.00;7389330;19;20406;-49
2022/09/12 06:45:50;;;;;;;23.60;16.47;;;;;;;12.06;100.00;101440.69;7392922;19;20451;-50
2022/09/12 06:48:20;;;;;;;22.10;15.67;;;;;;;12.16;100.00;101440.31;7388043;19;20419;-60
2022/09/12 06:50:57;;;;;;;21.87;15.70;;;;;;;12.21;100.00;101443.97;7394702;19;20383;-53
2022/09/12 06:53:32;;;;;;;19.27;14.10;;;;;;;12.35;100.00;101442.03;7388712;19;21059;-56
2022/09/12 06:56:03;;;;;;;18.90;14.30;;;;;;;12.51;100.00;101441.03;7392730;19;20418;-55
2022/09/12 06:58:33;;;;;;;18.47;13.90;;;;;;;12.52;100.00;101435.03;7392845;19;20411;-47
2022/09/12 07:01:06;;;;;;;20.80;14.00;;;;;;;12.68;100.00;101436.59;7394095;19;20797;-59
2022/09/12 07:03:36;;;;;;;81.40;42.67;;;;;;;12.83;100.00;101436.38;7392930;19;20519;-56
2022/09/12 07:06:07;;;;;;;24.07;15.40;;;;;;;12.88;100.00;101446.06;7389722;19;20413;-55
2022/09/12 07:08:39;;;;;;;19.20;14.20;;;;;;;13.03;100.00;101453.59;7394013;19;20390;-57
2022/09/12 07:11:14;;;;;;;17.70;12.83;;;;;;;13.13;100.00;101454.88;7389133;19;20482;-50
2022/09/12 07:13:45;;;;;;;22.07;13.40;;;;;;;13.22;100.00;101468.22;7392518;19;20405;-57
2022/09/12 07:16:16;;;;;;;19.40;12.50;;;;;;;13.20;100.00;101459.50;7389166;19;20392;-50
2022/09/12 07:18:52;;;;;;;16.60;13.10;;;;;;;13.27;100.00;101464.09;7393716;19;20393;-59
2022/09/12 07:21:22;;;;;;;15.30;11.80;;;;;;;13.35;100.00;101467.91;7386287;19;20416;-57
2022/09/12 07:23:56;;;;;;;18.13;12.20;;;;;;;13.42;100.00;101462.97;7392551;19;20899;-57
2022/09/12 07:26:26;;;;;;;17.43;10.30;;;;;;;13.50;100.00;101466.81;7388654;19;20408;-56
2022/09/12 07:28:57;;;;;;;22.43;14.40;;;;;;;13.59;100.00;101474.09;7393504;19;20780;-56
2022/09/12 07:31:46;;;;;;;15.87;10.73;;;;;;;13.74;100.00;101471.25;7389204;19;20977;-52
2022/09/12 07:34:16;;;;;;;19.13;12.97;;;;;;;13.83;100.00;101471.59;7392140;19;20432;-56
2022/09/12 07:36:46;;;;;;;13.60;9.70;;;;;;;13.94;100.00;101469.41;7388979;19;20432;-54
2022/09/12 07:39:18;;;;;;;15.27;10.27;;;;;;;14.02;100.00;101472.31;7392688;19;20405;-56
2022/09/12 07:41:48;;;;;;;15.13;10.53;;;;;;;14.18;100.00;101472.09;7388621;19;20406;-53
2022/09/12 07:44:17;;;;;;;14.60;10.20;;;;;;;14.26;100.00;101477.56;7391469;19;20794;-55
2022/09/12 07:46:47;;;;;;;11.90;9.63;;;;;;;14.40;100.00;101480.69;7388454;19;20420;-51
2022/09/12 07:49:16;;;;;;;12.70;8.77;;;;;;;14.42;100.00;101475.56;7392477;19;20416;-49
2022/09/12 07:51:45;;;;;;;11.60;8.20;;;;;;;14.56;100.00;101481.25;7379215;19;20441;-53
2022/09/12 07:54:17;;;;;;;10.97;7.67;;;;;;;14.61;100.00;101484.88;7392159;19;20530;-58
2022/09/12 07:56:47;;;;;;;10.33;8.17;;;;;;;14.71;100.00;101481.81;7387257;19;20423;-50
2022/09/12 07:59:16;;;;;;;11.53;8.43;;;;;;;14.86;100.00;101485.81;7394231;19;20417;-53
2022/09/12 08:02:06;;;;;;;11.80;7.80;;;;;;;14.88;100.00;101486.78;7393505;19;20414;-57
2022/09/12 08:04:36;;;;;;;12.23;8.03;;;;;;;14.96;100.00;101498.31;7398490;19;20529;-52
2022/09/12 08:07:05;;;;;;;8.17;6.33;;;;;;;15.08;100.00;101496.97;7394488;19;20407;-55
2022/09/12 08:09:37;;;;;;;11.20;7.50;;;;;;;15.19;100.00;101494.75;7399748;19;20388;-54
2022/09/12 08:12:08;;;;;;;12.40;8.07;;;;;;;15.25;100.00;101501.06;7395229;19;20418;-55
2022/09/12 08:14:37;;;;;;;9.07;6.03;;;;;;;15.37;100.00;101497.06;7397896;19;20432;-59
2022/09/12 08:17:07;;;;;;;11.30;6.10;;;;;;;15.59;100.00;101508.22;7395916;19;20439;-56
2022/09/12 08:19:37;;;;;;;9.17;6.97;;;;;;;15.73;100.00;101503.44;7399992;19;20406;-55
2022/09/12 08:22:07;;;;;;;9.67;6.23;;;;;;;15.79;100.00;101506.25;7393671;19;20399;-59
2022/09/12 08:24:39;;;;;;;8.53;6.47;;;;;;;15.95;100.00;101510.28;7398050;19;20415;-56
2022/09/12 08:27:08;;;;;;;14.00;8.97;;;;;;;16.01;100.00;101509.56;7395410;19;20399;-55
2022/09/12 08:29:37;;;;;;;11.53;6.00;;;;;;;16.04;100.00;101515.75;7399588;19;20370;-55
2022/09/12 08:32:07;;;;;;;9.57;6.90;;;;;;;16.18;100.00;101523.09;7394476;19;20950;-59
2022/09/12 08:34:36;;;;;;;8.70;6.20;;;;;;;16.22;100.00;101519.78;7397692;19;20948;-56
2022/09/12 08:37:06;;;;;;;8.00;6.63;;;;;;;16.29;100.00;101516.50;7393783;19;20519;-54
2022/09/12 08:39:35;;;;;;;8.87;6.23;;;;;;;16.41;100.00;101520.31;7399008;19;20406;-52
2022/09/12 08:42:08;;;;;;;6.67;5.03;;;;;;;16.45;100.00;101519.56;7393887;19;20428;-48
2022/09/12 08:45:01;;;;;;;9.63;5.97;;;;;;;16.63;100.00;101515.72;7397390;19;20406;-50
2022/09/12 08:47:33;;;;;;;15.77;10.50;;;;;;;16.79;100.00;101517.06;7393610;19;20772;-58
2022/09/12 08:50:12;;;;;;;6.10;5.07;;;;;;;16.78;100.00;101516.19;7397888;19;20382;-50
2022/09/12 08:52:47;;;;;;;6.70;5.30;;;;;;;16.68;100.00;101514.16;7392915;19;20439;-53
2022/09/12 08:55:29;;;;;;;7.07;5.37;;;;;;;16.82;100.00;101511.94;7395805;19;20444;-55
2022/09/12 08:58:02;;;;;;;8.17;5.30;;;;;;;16.87;100.00;101515.56;7395905;19;20453;-52
2022/09/12 09:00:40;;;;;;;40.27;16.80;;;;;;;16.93;100.00;101520.06;7398244;19;20378;-58
2022/09/12 09:03:26;;;;;;;6.13;3.80;;;;;;;16.92;100.00;101526.09;7391403;19;20471;-55
2022/09/12 09:06:00;;;;;;;5.50;4.30;;;;;;;16.96;100.00;101522.72;7394310;19;20774;-48
2022/09/12 09:08:43;;;;;;;5.60;3.60;;;;;;;17.07;100.00;101520.47;7399539;19;20437;-59
2022/09/12 09:11:23;;;;;;;6.63;3.37;;;;;;;17.13;100.00;101516.28;7394110;19;20395;-53
2022/09/12 09:16:45;;;;;;;5.73;3.73;;;;;;;17.33;100.00;101518.53;7392290;19;20454;-56
2022/09/12 09:19:19;;;;;;;7.17;3.50;;;;;;;17.30;100.00;101520.19;7399233;19;20392;-58
2022/09/12 09:21:52;;;;;;;3.80;3.00;;;;;;;17.40;100.00;101517.84;7392471;19;20409;-58
2022/09/12 09:24:27;;;;;;;10.50;4.33;;;;;;;17.52;100.00;101521.59;7399495;19;20448;-52
2022/09/12 09:27:00;;;;;;;4.20;2.97;;;;;;;17.51;100.00;101528.56;7390824;19;20467;-53
2022/09/12 09:29:38;;;;;;;6.30;2.87;;;;;;;17.55;100.00;101521.69;7397015;19;20935;-49
2022/09/12 09:32:15;;;;;;;9.53;3.33;;;;;;;17.76;100.00;101526.56;7392256;19;20436;-52
2022/09/12 09:34:45;;;;;;;7.30;3.87;;;;;;;17.86;100.00;101532.00;7395189;19;20458;-58
2022/09/12 09:37:18;;;;;;;4.20;2.77;;;;;;;17.92;100.00;101533.03;7391900;19;20414;-50
2022/09/12 09:39:55;;;;;;;22.73;12.87;;;;;;;18.14;100.00;101530.94;7397633;19;20419;-55
2022/09/12 09:42:31;;;;;;;24.47;13.60;;;;;;;18.21;100.00;101535.47;7391958;19;21017;-55
2022/09/12 09:45:13;;;;;;;8.73;2.87;;;;;;;18.10;100.00;101534.31;7396573;19;20419;-57
2022/09/12 09:47:42;;;;;;;11.17;4.33;;;;;;;17.99;100.00;101560.16;7391681;19;20437;-56
2022/09/12 09:50:16;;;;;;;5.70;2.77;;;;;;;17.92;100.00;101564.38;7396512;19;20387;-62
2022/09/12 09:52:45;;;;;;;4.93;2.30;;;;;;;17.94;100.00;101560.06;7379750;19;20411;-55
2022/09/12 09:55:18;;;;;;;6.63;3.70;;;;;;;18.16;100.00;101552.75;7394192;19;20976;-53
2022/09/12 09:57:48;;;;;;;5.13;3.10;;;;;;;18.20;100.00;101561.56;7385084;19;20427;-55
2022/09/12 10:00:30;;;;;;;12.40;3.50;;;;;;;18.15;100.00;101564.03;7396209;19;20409;-50
2022/09/12 10:03:27;;;;;;;5.10;2.10;;;;;;;18.16;100.00;101589.31;7390693;19;20501;-56
2022/09/12 10:05:59;;;;;;;5.80;3.00;;;;;;;18.34;100.00;101590.59;7393694;19;20433;-52
2022/09/12 10:08:30;;;;;;;29.57;8.17;;;;;;;18.51;100.00;101606.63;7395158;19;20435;-55
2022/09/12 10:11:03;;;;;;;8.73;2.47;;;;;;;18.31;100.00;101616.66;7395734;19;20938;-51
2022/09/12 10:13:36;;;;;;;6.57;2.87;;;;;;;18.32;100.00;101611.44;7394185;19;20414;-55
2022/09/12 10:16:20;;;;;;;3.10;1.70;;;;;;;18.36;100.00;101612.41;7390539;19;20405;-52
2022/09/12 10:18:52;;;;;;;3.77;1.67;;;;;;;18.57;100.00;101605.91;7395604;19;20752;-57
2022/09/12 10:21:28;;;;;;;6.47;3.40;;;;;;;18.68;100.00;101614.88;7388232;19;20437;-55
2022/09/12 10:24:19;;;;;;;4.37;2.40;;;;;;;18.67;100.00;101633.97;7393498;19;20402;-57
2022/09/12 10:26:51;;;;;;;7.03;3.47;;;;;;;18.56;100.00;101630.28;7390067;19;20423;-56
2022/09/12 10:29:27;;;;;;;4.47;1.90;;;;;;;18.67;100.00;101630.50;7396081;19;21035;-57
2022/09/12 10:32:00;;;;;;;10.70;3.70;;;;;;;18.63;100.00;101647.84;7392160;19;20523;-49
2022/09/12 10:34:32;;;;;;;18.67;8.30;;;;;;;18.79;100.00;101648.19;7397518;19;20427;-52
2022/09/12 10:37:04;;;;;;;21.77;11.20;;;;;;;18.85;100.00;101643.09;7389951;19;20451;-56
2022/09/12 10:39:35;;;;;;;8.00;3.60;;;;;;;18.92;100.00;101637.13;7394786;19;20922;-55
2022/09/12 10:42:05;;;;;;;8.63;3.67;;;;;;;19.03;100.00;101637.41;7388365;19;20415;-55
2022/09/12 10:44:36;;;;;;;5.20;2.60;;;;;;;18.97;100.00;101638.13;7393264;19;20442;-48
2022/09/12 10:47:24;;;;;;;3.70;2.30;;;;;;;18.86;100.00;101637.00;7391524;19;20419;-56
2022/09/12 10:49:53;;;;;;;6.50;3.27;;;;;;;18.74;100.00;101648.97;7394377;19;20905;-55
2022/09/12 10:52:24;;;;;;;3.97;2.50;;;;;;;18.62;100.00;101640.88;7388922;19;20411;-54
2022/09/12 10:54:54;;;;;;;11.80;6.23;;;;;;;18.51;100.00;101637.97;7392772;19;20419;-55
2022/09/12 10:57:44;;;;;;;6.07;2.50;;;;;;;18.74;100.00;101619.34;7388470;19;20440;-52
2022/09/12 11:00:16;;;;;;;11.47;5.20;;;;;;;18.78;100.00;101615.94;7391278;19;20407;-55
2022/09/12 11:03:12;;;;;;;10.20;5.10;;;;;;;18.65;100.00;101620.00;7390132;19;20443;-50
2022/09/12 11:06:03;;;;;;;6.80;4.07;;;;;;;18.76;100.00;101608.06;7392060;19;20411;-58
2022/09/12 11:08:56;;;;;;;4.90;2.60;;;;;;;18.90;100.00;101602.25;7392638;19;20411;-56
2022/09/12 11:11:40;;;;;;;6.03;2.80;;;;;;;19.14;100.00;101606.25;7388097;19;20431;-56
2022/09/12 11:14:18;;;;;;;5.67;3.30;;;;;;;19.03;100.00;101612.13;7393565;19;20451;-54
2022/09/12 11:16:51;;;;;;;3.80;2.50;;;;;;;19.18;100.00;101605.47;7389084;19;20427;-53
2022/09/12 11:19:35;;;;;;;20.77;8.30;;;;;;;19.15;100.00;101603.66;7393267;19;20396;-50
2022/09/12 11:22:16;;;;;;;5.70;4.03;;;;;;;18.99;100.00;101610.28;7387397;19;20411;-60
2022/09/12 11:24:57;;;;;;;25.97;9.47;;;;;;;19.07;100.00;101606.97;7391678;19;20767;-58
2022/09/12 11:27:36;;;;;;;6.40;3.07;;;;;;;19.12;100.00;101605.34;7369165;19;20455;-55
2022/09/12 11:30:09;;;;;;;15.47;5.10;;;;;;;19.21;100.00;101604.59;7393238;19;20376;-53
2022/09/12 11:32:54;;;;;;;6.30;3.37;;;;;;;19.25;100.00;101602.09;7387250;19;20415;-59
2022/09/12 11:35:28;;;;;;;4.00;2.97;;;;;;;19.31;100.00;101611.78;7391247;19;20419;-58
2022/09/12 11:38:19;;;;;;;8.70;5.20;;;;;;;19.46;100.00;101607.69;7371682;19;20443;-51